Latest Weather Observations for Parafield

IDS60901

Issued at 11:11 pm CST Monday 26 June 2017 (issued every 10 minutes, with the page automatically refreshed every 10 minutes)

About weather observations | Map of Adelaide area stations | Latest observations for Adelaide area | Other Formats
Station Details ID: 023013 Name: PARAFIELD AIRPORT Lat: -34.80 Lon: 138.63 Height: 9.5 m
Data from the previous 72 hours. | See also: Recent months at Parafield
Date/Time
CST
Temp
°C
App
Temp
°C
Dew
Point
°C
Rel
Hum
%
Delta-T
°C
Wind Press
QNH
hPa
Press
MSL
hPa
Rain since
9am
mm
Dir  Spd
km/h
Gust
km/h
Spd
kts
Gust
kts
26/11:00pm 9.1 8.3 8.2 94 0.4 SW 2 6 1 3 1025.0 1025.0 0.0
26/10:30pm 9.2 8.0 8.1 93 0.5 W 4 9 2 5 1025.3 1025.3 0.0
26/10:00pm 9.5 9.2 8.6 94 0.4 CALM 0 0 0 0 1025.3 1025.3 0.0
26/09:30pm 9.4 8.7 8.5 94 0.4 SE 2 6 1 3 1025.1 1025.1 0.0
26/09:00pm 9.2 8.8 8.1 93 0.5 CALM 0 0 0 0 1025.4 1025.4 0.0
26/08:30pm 9.3 8.9 8.1 92 0.6 CALM 0 0 0 0 1025.6 1025.6 0.0
26/08:00pm 9.2 8.7 8.0 92 0.6 CALM 0 0 0 0 1025.5 1025.5 0.0
26/07:30pm 8.9 7.6 7.8 93 0.5 ENE 4 6 2 3 1025.3 1025.3 0.0
26/07:00pm 8.3 6.4 7.4 94 0.4 NE 7 11 4 6 1024.9 1024.9 0.0
26/06:30pm 9.8 9.5 8.7 93 0.5 CALM 0 0 0 0 1024.7 1024.7 0.0
26/06:00pm 9.7 7.8 7.5 86 1.0 ESE 7 9 4 5 1024.4 1024.4 0.0
26/05:30pm 11.5 11.2 8.7 83 1.4 CALM 0 0 0 0 1024.5 1024.5 0.0
26/05:00pm 13.1 12.8 8.8 75 2.2 CALM 0 0 0 0 1023.9 1023.9 0.0
26/04:30pm 14.2 13.9 8.8 70 2.7 CALM 0 0 0 0 1023.8 1023.8 0.0
26/04:00pm 14.1 13.2 9.1 72 2.5 N 4 6 2 3 1024.2 1024.2 0.0
26/03:30pm 13.9 12.6 9.3 74 2.3 N 6 9 3 5 1024.4 1024.4 0.0
26/03:00pm 13.7 12.0 9.9 78 1.9 N 9 11 5 6 1024.4 1024.4 0.0
26/02:30pm 14.1 12.0 9.9 76 2.2 NNW 11 15 6 8 1024.4 1024.4 0.0
26/02:00pm 14.3 12.5 9.5 73 2.5 N 9 15 5 8 1024.6 1024.6 0.0
26/01:30pm 14.4 12.4 8.8 69 2.8 NNW 9 15 5 8 1024.6 1024.6 0.0
26/01:00pm 14.4 12.9 8.6 68 2.9 N 6 9 3 5 1024.8 1024.8 0.0
26/12:56pm 15.1 13.8 9.2 68 3.0 NNW 6 9 3 5 1024.8 1024.8 0.0
26/12:30pm 14.2 12.7 9.0 71 2.6 NNE 7 15 4 8 1025.0 1025.0 0.0
26/12:00pm 12.6 10.7 9.2 80 1.7 N 9 15 5 8 1025.3 1025.3 0.0
26/11:30am 12.3 10.8 9.3 82 1.5 N 7 13 4 7 1025.7 1025.7 0.0
26/11:00am 11.9 10.1 9.6 86 1.2 ENE 9 15 5 8 1025.9 1025.9 0.0
26/10:30am 11.4 9.6 9.5 88 1.0 NE 9 11 5 6 1026.0 1026.0 0.0
26/10:00am 11.2 9.4 9.6 90 0.8 N 9 13 5 7 1026.1 1026.1 0.0
26/09:30am 10.7 8.0 9.1 90 0.8 NNE 13 15 7 8 1025.9 1025.9 0.0
26/09:00am 10.5 7.8 9.1 91 0.7 NNE 13 17 7 9 1025.7 1025.7 2.4
26/08:30am 10.3 8.5 9.4 94 0.4 NNE 9 13 5 7 1025.3 1025.3 2.4
26/08:00am 9.8 8.2 8.9 94 0.4 NNE 7 11 4 6 1024.9 1024.9 2.4
26/07:30am 9.6 7.6 8.7 94 0.4 NE 9 15 5 8 1024.6 1024.6 2.4
26/07:00am 9.4 7.0 8.5 94 0.4 NE 11 13 6 7 1024.3 1024.3 2.4
26/06:30am 9.5 7.1 8.7 95 0.4 NNE 11 15 6 8 1024.1 1024.1 2.2
26/06:00am 9.4 7.0 8.6 95 0.4 NNE 11 17 6 9 1023.9 1023.9 2.2
26/05:30am 9.4 7.0 8.6 95 0.4 NNE 11 15 6 8 1023.6 1023.6 2.2
26/05:00am 9.3 7.3 8.7 96 0.3 NNE 9 13 5 7 1023.4 1023.4 2.2
26/04:40am 9.2 6.7 8.4 95 0.4 NNE 11 15 6 8 1023.2 1023.2 2.2
26/04:32am 9.2 6.7 8.4 95 0.4 NE 11 15 6 8 1023.1 1023.1 2.2
26/04:30am 9.3 6.9 8.7 96 0.3 NE 11 15 6 8 1023.1 1023.1 2.2
26/04:24am 9.3 6.5 8.7 96 0.3 NNE 13 15 7 8 1023.1 1023.1 2.2
26/04:09am 9.2 7.1 8.4 95 0.4 N 9 13 5 7 1023.1 1023.1 2.2
26/04:00am 9.2 7.1 8.4 95 0.4 N 9 13 5 7 1023.2 1023.2 2.2
26/03:57am 9.2 6.7 8.4 95 0.4 N 11 15 6 8 1023.2 1023.2 2.2
26/03:54am 9.3 6.5 8.5 95 0.4 NNE 13 15 7 8 1023.2 1023.2 2.2
26/03:51am 9.3 6.1 8.5 95 0.4 NNE 15 17 8 9 1023.1 1023.1 2.2
26/03:30am 9.5 7.9 8.6 94 0.4 NE 7 11 4 6 1023.2 1023.2 1.8
26/03:08am 9.6 6.4 8.5 93 0.5 NE 15 20 8 11 1023.0 1023.0 0.8
26/03:00am 9.7 8.1 8.8 94 0.4 SE 7 15 4 8 1023.1 1023.1 0.6
26/02:30am 9.6 7.6 8.7 94 0.4 NE 9 11 5 6 1023.0 1023.0 0.6
26/02:00am 9.5 6.3 8.6 94 0.4 NNE 15 19 8 10 1022.8 1022.8 0.2
26/01:30am 9.6 6.8 8.7 94 0.4 N 13 17 7 9 1022.7 1022.7 0.2
26/01:18am 9.6 6.9 8.8 95 0.4 N 13 17 7 9 1022.6 1022.6 0.2
26/01:00am 9.4 6.2 8.6 95 0.4 N 15 17 8 9 1022.5 1022.5 0.2
26/12:30am 9.5 6.7 8.6 94 0.4 NNE 13 13 7 7 1022.5 1022.5 0.2
26/12:00am 9.5 7.0 8.4 93 0.5 N 11 15 6 8 1022.6 1022.6 0.2
 
Date/Time
CST
Temp
°C
App
Temp
°C
Dew
Point
°C
Rel
Hum
%
Delta-T
°C
Wind Press
QNH
hPa
Press
MSL
hPa
Rain since
9am
mm
Dir  Spd
km/h
Gust
km/h
Spd
kts
Gust
kts
25/11:30pm 9.3 7.6 8.4 94 0.4 NNE 7 9 4 5 1022.6 1022.6 0.2
25/11:00pm 9.4 7.7 8.3 93 0.5 NNE 7 11 4 6 1022.6 1022.6 0.2
25/10:30pm 10.6 9.7 9.2 91 0.7 SE 4 7 2 4 1022.5 1022.5 0.2
25/10:26pm 10.8 9.9 9.4 91 0.7 SE 4 7 2 4 1022.5 1022.5 0.2
25/10:00pm 10.5 9.7 9.6 94 0.5 SW 4 9 2 5 1022.6 1022.6 0.2
25/09:58pm 10.4 9.2 9.6 95 0.4 SSW 6 9 3 5 1022.6 1022.6 0.2
25/09:30pm 9.5 7.7 7.9 90 0.8 NE 7 9 4 5 1022.3 1022.3 0.2
25/09:00pm 10.5 8.7 9.3 92 0.6 NE 9 13 5 7 1022.1 1022.1 0.2
25/08:30pm 10.3 8.8 9.1 92 0.6 NNE 7 9 4 5 1022.2 1022.2 0.2
25/08:00pm 9.5 9.1 8.4 93 0.5 CALM 0 6 0 3 1021.9 1021.9 0.2
25/07:30pm 8.6 6.3 7.4 92 0.6 NE 9 11 5 6 1021.3 1021.4 0.2
25/07:00pm 8.8 6.9 6.9 88 0.9 NE 6 7 3 4 1021.2 1021.3 0.2
25/06:30pm 9.5 9.0 7.9 90 0.8 CALM 0 0 0 0 1021.1 1021.2 0.2
25/06:00pm 11.0 10.6 8.4 84 1.3 CALM 0 0 0 0 1020.9 1021.0 0.2
25/05:30pm 12.3 11.7 8.8 79 1.7 SW 2 6 1 3 1020.7 1020.8 0.2
25/05:00pm 12.9 10.7 9.2 78 1.9 WSW 11 13 6 7 1020.7 1020.8 0.2
25/04:30pm 13.1 10.9 9.2 77 2.0 SW 11 15 6 8 1020.6 1020.7 0.2
25/04:00pm 13.1 10.4 9.0 76 2.1 WSW 13 17 7 9 1020.6 1020.7 0.2
25/03:30pm 13.0 10.4 9.4 79 1.8 SW 13 17 7 9 1020.3 1020.4 0.2
25/03:05pm 12.8 11.2 10.3 85 1.3 SW 9 13 5 7 1020.1 1020.2 0.2
25/03:00pm 12.9 11.8 10.8 87 1.1 SSW 7 13 4 7 1020.1 1020.2 0.2
25/02:30pm 12.3 9.3 10.7 90 0.8 SW 17 22 9 12 1019.9 1020.0 0.2
25/02:13pm 12.4 8.8 10.6 89 0.9 SW 20 26 11 14 1019.7 1019.8 0.2
25/02:00pm 12.7 9.4 11.6 93 0.6 SSW 20 28 11 15 1019.6 1019.7 0.2
25/01:48pm 12.8 8.7 11.5 92 0.7 SW 24 32 13 17 1019.6 1019.7 0.0
25/01:30pm 13.4 10.5 10.9 85 1.3 SW 17 24 9 13 1019.7 1019.8 0.0
25/01:00pm 13.6 8.7 9.8 78 2.0 WSW 26 33 14 18 1019.7 1019.8 0.0
25/12:30pm 14.1 9.1 9.5 74 2.4 WSW 26 32 14 17 1019.9 1020.0 0.0
25/12:00pm 15.3 12.1 9.9 70 2.8 WNW 17 24 9 13 1019.9 1020.0 0.0
25/11:49am 14.9 12.0 9.7 71 2.7 WNW 15 20 8 11 1020.0 1020.1 0.0
25/11:30am 14.7 12.7 10.3 75 2.3 WNW 11 19 6 10 1020.3 1020.4 0.0
25/11:12am 14.5 12.2 10.3 76 2.2 NNW 13 22 7 12 1020.4 1020.5 0.0
25/11:00am 14.4 12.2 9.4 72 2.6 N 11 13 6 7 1020.4 1020.5 0.0
25/10:30am 12.9 10.5 8.8 76 2.0 N 11 15 6 8 1020.5 1020.6 0.0
25/10:00am 12.3 10.0 9.0 80 1.7 NNE 11 15 6 8 1020.4 1020.5 0.0
25/09:30am 11.3 9.1 9.2 87 1.0 NNE 11 13 6 7 1020.3 1020.4 0.0
25/09:00am 10.3 8.3 8.7 90 0.8 NNE 9 13 5 7 1020.2 1020.3 0.0
25/08:30am 9.8 7.0 8.6 92 0.6 NNE 13 17 7 9 1019.7 1019.8 0.0
25/08:00am 7.8 6.0 7.1 95 0.3 NNE 6 7 3 4 1019.8 1019.9 0.0
25/07:30am 8.1 6.1 7.3 95 0.4 NNE 7 9 4 5 1019.6 1019.7 0.0
25/07:00am 7.3 5.1 6.1 92 0.5 NNE 7 9 4 5 1019.3 1019.4 0.0
25/06:30am 8.0 6.1 6.8 92 0.6 NNE 6 7 3 4 1018.9 1019.0 0.0
25/06:00am 8.3 5.5 6.9 91 0.6 N 11 13 6 7 1018.6 1018.7 0.0
25/05:30am 8.3 6.5 7.2 93 0.5 NNE 6 7 3 4 1018.4 1018.5 0.0
25/05:00am 7.1 4.7 5.4 89 0.8 NE 7 9 4 5 1018.4 1018.5 0.0
25/04:30am 7.7 6.1 6.3 91 0.6 N 4 6 2 3 1018.4 1018.5 0.0
25/04:00am 7.7 5.2 6.5 92 0.5 NE 9 11 5 6 1018.4 1018.5 0.0
25/03:30am 6.9 4.7 5.5 91 0.6 NE 6 7 3 4 1018.5 1018.6 0.0
25/03:17am 7.1 4.8 5.9 92 0.5 NE 7 9 4 5 1018.7 1018.8 0.0
25/03:01am 7.2 5.0 6.0 92 0.5 NE 7 7 4 4 1018.7 1018.8 0.0
25/03:00am 7.1 4.8 5.7 91 0.6 NE 7 7 4 4 1018.7 1018.8 0.0
25/02:30am 6.7 5.4 5.8 94 0.4 NE 2 6 1 3 1019.0 1019.1 0.0
25/02:00am 6.4 4.2 5.5 94 0.4 N 6 7 3 4 1018.8 1018.9 0.0
25/01:30am 6.6 5.6 5.6 93 0.4 CALM 0 0 0 0 1018.7 1018.8 0.0
25/01:00am 7.1 6.2 6.2 94 0.4 CALM 0 0 0 0 1018.7 1018.8 0.0
25/12:30am 7.4 6.6 6.3 93 0.5 CALM 0 0 0 0 1018.8 1018.9 0.0
25/12:00am 7.5 5.7 5.6 88 0.8 NE 4 6 2 3 1018.7 1018.8 0.0
 
Date/Time
CST
Temp
°C
App
Temp
°C
Dew
Point
°C
Rel
Hum
%
Delta-T
°C
Wind Press
QNH
hPa
Press
MSL
hPa
Rain since
9am
mm
Dir  Spd
km/h
Gust
km/h
Spd
kts
Gust
kts
24/11:30pm 8.5 6.6 6.5 87 0.9 NNE 6 7 3 4 1018.8 1018.9 0.0
24/11:00pm 9.1 7.3 7.1 87 0.9 N 6 7 3 4 1018.8 1018.9 0.0
24/10:30pm 9.6 7.7 7.7 88 0.9 N 7 9 4 5 1018.8 1018.9 0.0
24/10:00pm 9.8 9.3 7.7 87 1.0 CALM 0 0 0 0 1018.7 1018.8 0.0
24/09:30pm 9.7 9.1 7.5 86 1.0 CALM 0 0 0 0 1018.8 1018.9 0.0
24/09:00pm 9.4 8.8 7.5 88 0.9 CALM 0 0 0 0 1018.9 1019.0 0.0
24/08:30pm 9.3 7.7 7.9 91 0.7 S 6 6 3 3 1018.9 1019.0 0.0
24/08:00pm 7.9 5.7 5.2 83 1.2 S 6 6 3 3 1018.8 1018.9 0.0
24/07:30pm 8.8 6.9 6.9 88 0.9 S 6 6 3 3 1018.6 1018.7 0.0
24/07:00pm 8.6 6.4 5.2 79 1.5 SSE 6 7 3 4 1018.5 1018.6 0.0
24/06:30pm 10.9 9.1 7.0 77 1.8 SE 6 7 3 4 1018.2 1018.3 0.0
24/06:00pm 11.0 9.0 7.1 77 1.9 S 7 9 4 5 1018.2 1018.3 0.0
24/05:30pm 12.4 11.3 6.9 69 2.6 WSW 2 6 1 3 1017.9 1018.0 0.0
24/05:00pm 14.4 12.1 7.5 63 3.4 WSW 9 11 5 6 1018.0 1018.1 0.0
24/04:30pm 15.9 13.4 8.4 61 3.8 SW 11 15 6 8 1018.0 1018.1 0.0
24/04:00pm 16.8 13.8 7.7 55 4.6 SW 13 17 7 9 1017.8 1017.9 0.0
24/03:30pm 17.1 14.2 6.6 50 5.2 WSW 11 15 6 8 1017.7 1017.8 0.0
24/03:00pm 17.3 15.4 7.4 52 5.0 SW 7 9 4 5 1017.8 1017.9 0.0
24/02:30pm 16.5 14.9 8.2 58 4.2 SW 6 9 3 5 1017.8 1017.9 0.0
24/02:00pm 16.3 13.8 8.0 58 4.2 SSW 11 13 6 7 1018.1 1018.2 0.0
24/01:30pm 16.0 12.8 8.5 61 3.8 SW 15 20 8 11 1018.2 1018.3 0.0
24/01:00pm 16.2 12.7 8.9 62 3.7 WSW 17 20 9 11 1018.5 1018.6 0.0
24/12:30pm 16.9 15.0 9.1 60 4.0 WSW 9 15 5 8 1018.8 1018.9 0.0
24/12:00pm 16.2 14.0 9.4 64 3.5 W 11 15 6 8 1019.2 1019.3 0.0
24/11:30am 16.1 13.9 9.3 64 3.5 WSW 11 13 6 7 1019.6 1019.7 0.0
24/11:00am 15.0 13.0 8.7 66 3.2 WSW 9 11 5 6 1019.8 1019.9 0.0
24/10:30am 15.1 13.6 8.6 65 3.3 WSW 6 11 3 6 1020.0 1020.1 0.0
24/10:00am 13.8 13.4 8.2 69 2.8 CALM 0 0 0 0 1020.1 1020.2 0.0
24/09:30am 11.6 11.1 7.7 77 1.9 CALM 0 0 0 0 1020.3 1020.4 0.0
24/09:00am 9.5 8.1 7.3 86 1.0 N 4 9 2 5 1020.3 1020.4 0.0
24/08:30am 7.0 4.8 6.4 96 0.3 SW 7 11 4 6 1019.9 1020.0 0.0
24/08:00am 3.3 1.3 2.4 94 0.4 E 2 6 1 3 1019.7 1019.8 0.0
24/07:30am 3.5 0.8 2.9 96 0.2 N 6 7 3 4 1019.6 1019.7 0.0
24/07:00am 3.4 1.0 2.2 92 0.5 NNE 4 7 2 4 1019.5 1019.6 0.0
24/06:30am 3.4 0.5 2.8 96 0.2 N 7 11 4 6 1019.4 1019.5 0.0
24/06:00am 2.0 0.2 1.1 94 0.3 CALM 0 2 0 1 1019.1 1019.2 0.0
24/05:54am 1.8 0.0 0.9 94 0.3 CALM 0 0 0 0 1019.1 1019.2 0.0
24/05:35am 2.0 -1.0 1.0 93 0.4 E 6 7 3 4 1018.8 1018.9 0.0
24/05:30am 2.9 0.4 1.7 92 0.5 NE 4 7 2 4 1018.7 1018.8 0.0
24/05:00am 2.7 0.2 1.4 91 0.5 ENE 4 6 2 3 1018.8 1018.9 0.0
24/04:30am 5.6 4.1 5.0 96 0.3 SSE 2 6 1 3 1018.7 1018.8 0.0
24/04:00am 3.4 1.7 2.1 91 0.5 CALM 0 0 0 0 1018.8 1018.9 0.0
24/03:30am 4.1 1.8 2.9 92 0.5 ENE 4 6 2 3 1018.9 1019.0 0.0
24/03:00am 5.2 3.9 4.3 94 0.4 CALM 0 0 0 0 1018.8 1018.9 0.0
24/02:30am 3.7 2.1 2.7 93 0.4 CALM 0 0 0 0 1018.9 1019.0 0.0
24/02:00am 3.8 2.2 2.3 90 0.6 CALM 0 0 0 0 1018.8 1018.9 0.0
24/01:30am 4.3 2.9 3.4 94 0.4 CALM 0 0 0 0 1018.9 1019.0 0.0
24/01:00am 4.2 1.9 2.9 91 0.5 ENE 4 6 2 3 1019.0 1019.1 0.0
24/12:30am 5.8 3.8 4.6 92 0.5 NNE 4 7 2 4 1019.0 1019.1 0.0
24/12:00am 6.0 2.9 3.8 86 0.9 NNE 9 11 5 6 1019.2 1019.3 0.0
 
Date/Time
CST
Temp
°C
App
Temp
°C
Dew
Point
°C
Rel
Hum
%
Delta-T
°C
Wind Press
QNH
hPa
Press
MSL
hPa
Rain since
9am
mm
Dir  Spd
km/h
Gust
km/h
Spd
kts
Gust
kts
23/11:30pm 4.8 2.1 2.7 86 0.8 NE 6 7 3 4 1019.0 1019.1 0.0

Latest Capital City Observations: Canberra | Sydney | Melbourne | Brisbane | Adelaide | Perth | Hobart | Darwin

Other Formats:

Comma delimited format used in spreadsheet applications
http://www.bom.gov.au/fwo/IDS60901/IDS60901.95677.axf

JavaScript Object Notation format (JSON) in row-major order
http://www.bom.gov.au/fwo/IDS60901/IDS60901.95677.json